createdAt,value
2018-04-23T00:01:41.256Z,23.38
2018-04-23T00:04:07.535Z,23.37
2018-04-23T00:06:33.811Z,23.37
2018-04-23T00:09:00.063Z,23.37
2018-04-23T00:11:26.261Z,23.35
2018-04-23T00:13:52.551Z,23.35
2018-04-23T00:16:18.855Z,23.34
2018-04-23T00:18:45.126Z,23.33
2018-04-23T00:21:11.319Z,23.32
2018-04-23T00:23:37.900Z,23.33
2018-04-23T00:26:04.406Z,23.32
2018-04-23T00:28:30.601Z,23.31
2018-04-23T00:30:56.771Z,23.31
2018-04-23T00:33:22.982Z,23.29
2018-04-23T00:35:49.180Z,23.27
2018-04-23T00:38:15.847Z,23.28
2018-04-23T00:40:42.038Z,23.27
2018-04-23T00:43:08.222Z,23.28
2018-04-23T00:45:34.512Z,23.27
2018-04-23T00:48:00.685Z,23.27
2018-04-23T00:50:27.058Z,23.27
2018-04-23T00:53:05.463Z,23.27
2018-04-23T00:55:31.758Z,23.26
2018-04-23T00:57:57.911Z,23.25
2018-04-23T01:00:24.143Z,23.25
2018-04-23T01:02:50.382Z,23.25
2018-04-23T01:05:16.622Z,23.25
2018-04-23T01:07:42.876Z,23.24
2018-04-23T01:10:09.465Z,23.23
2018-04-23T01:12:36.143Z,23.23
2018-04-23T01:15:02.347Z,23.23
2018-04-23T01:17:28.515Z,23.21
2018-04-23T01:19:55.074Z,23.18
2018-04-23T01:22:21.323Z,23.17
2018-04-23T01:24:47.545Z,23.18
2018-04-23T01:27:13.970Z,23.17
2018-04-23T01:29:40.197Z,23.17
2018-04-23T01:32:06.380Z,23.16
2018-04-23T01:34:32.600Z,23.15
2018-04-23T01:36:58.984Z,23.15
2018-04-23T01:39:25.304Z,23.14
2018-04-23T01:41:51.654Z,23.13
2018-04-23T01:44:17.854Z,23.11
2018-04-23T01:46:44.405Z,23.09
2018-04-23T01:49:10.704Z,23.08
2018-04-23T01:51:36.899Z,23.07
2018-04-23T01:54:03.136Z,23.06
2018-04-23T01:56:29.649Z,23.06
2018-04-23T01:58:56.179Z,23.06
2018-04-23T02:01:22.766Z,23.06
2018-04-23T02:03:48.973Z,23.04
2018-04-23T02:06:15.266Z,23.04
2018-04-23T02:08:41.471Z,23.05
2018-04-23T02:11:07.703Z,23.06
2018-04-23T02:13:33.962Z,23.06
2018-04-23T02:16:00.289Z,23.06
2018-04-23T02:18:26.519Z,23.05
2018-04-23T02:20:52.752Z,23.05
2018-04-23T02:23:19.030Z,23.05
2018-04-23T02:25:45.485Z,23.05
2018-04-23T02:28:11.656Z,23.04
2018-04-23T02:30:37.967Z,23.04
2018-04-23T02:33:04.159Z,23.05
2018-04-23T02:35:30.389Z,23.05
2018-04-23T02:37:56.583Z,23.06
2018-04-23T02:40:22.945Z,23.05
2018-04-23T02:42:49.163Z,23.06
2018-04-23T02:45:15.348Z,23.06
2018-04-23T02:47:41.661Z,23.06
2018-04-23T02:50:07.888Z,23.06
2018-04-23T02:52:34.561Z,23.06
2018-04-23T02:55:00.802Z,23.08
2018-04-23T02:57:26.967Z,23.06
2018-04-23T02:59:53.319Z,23.06
2018-04-23T03:02:19.502Z,23.04
2018-04-23T03:04:45.705Z,23.04
2018-04-23T03:07:12.249Z,23.04
2018-04-23T03:09:38.473Z,23.03
2018-04-23T03:12:04.739Z,23.00
2018-04-23T03:14:31.099Z,22.98
2018-04-23T03:16:57.254Z,22.97
2018-04-23T03:19:23.499Z,22.97
2018-04-23T03:21:49.698Z,22.98
2018-04-23T03:24:15.879Z,22.98
2018-04-23T03:26:42.251Z,22.99
2018-04-23T03:29:08.462Z,22.99
2018-04-23T03:31:34.677Z,22.98
2018-04-23T03:34:01.206Z,22.97
2018-04-23T03:36:27.462Z,22.97
2018-04-23T03:38:53.660Z,22.95
2018-04-23T03:41:19.986Z,22.94
2018-04-23T03:43:46.209Z,22.93
2018-04-23T03:46:12.364Z,22.92
2018-04-23T03:48:38.830Z,22.91
2018-04-23T03:51:05.312Z,22.90
2018-04-23T03:53:31.603Z,22.88
2018-04-23T03:55:57.868Z,22.88
2018-04-23T03:58:24.099Z,22.90
2018-04-23T04:00:50.406Z,22.87
2018-04-23T04:03:16.559Z,22.85
2018-04-23T04:05:42.788Z,22.83
2018-04-23T04:08:08.964Z,22.82
2018-04-23T04:10:35.463Z,22.81
2018-04-23T04:13:14.447Z,22.80
2018-04-23T04:15:52.905Z,22.84
2018-04-23T04:18:40.123Z,22.83
2018-04-23T04:21:06.401Z,22.85
2018-04-23T04:23:32.675Z,22.85
2018-04-23T04:25:59.048Z,22.84
2018-04-23T04:28:26.282Z,22.84
2018-04-23T04:30:52.959Z,22.84
2018-04-23T04:33:19.175Z,22.85
2018-04-23T04:35:45.425Z,22.83
2018-04-23T04:38:11.906Z,22.87
2018-04-23T04:40:38.129Z,22.87
2018-04-23T04:43:04.357Z,22.83
2018-04-23T04:45:30.515Z,22.78
2018-04-23T04:47:56.774Z,22.75
2018-04-23T04:50:23.065Z,22.73
2018-04-23T04:52:49.253Z,22.70
2018-04-23T04:55:15.482Z,22.68
2018-04-23T04:57:42.009Z,22.66
2018-04-23T05:00:08.264Z,22.66
2018-04-23T05:02:34.497Z,22.65
2018-04-23T05:05:00.830Z,22.63
2018-04-23T05:07:27.108Z,22.62
2018-04-23T05:09:53.347Z,22.61
2018-04-23T05:12:19.516Z,22.61
2018-04-23T05:14:45.792Z,22.60
2018-04-23T05:17:12.037Z,22.59
2018-04-23T05:19:38.247Z,22.62
2018-04-23T05:22:04.418Z,22.65
2018-04-23T05:24:30.670Z,22.65
2018-04-23T05:26:56.869Z,22.68
2018-04-23T05:29:23.071Z,22.67
2018-04-23T05:31:49.334Z,22.65
2018-04-23T05:34:15.562Z,22.65
2018-04-23T05:36:42.178Z,22.67
2018-04-23T05:39:08.437Z,22.71
2018-04-23T05:41:34.701Z,22.73
2018-04-23T05:44:00.986Z,22.74
2018-04-23T05:46:27.248Z,22.75
2018-04-23T05:48:53.513Z,22.74
2018-04-23T05:51:20.053Z,22.72
2018-04-23T05:53:46.316Z,22.69
2018-04-23T05:56:12.591Z,22.67
2018-04-23T05:58:39.090Z,22.71
2018-04-23T06:01:05.445Z,22.69
2018-04-23T06:03:31.916Z,22.65
2018-04-23T06:05:58.194Z,22.65
2018-04-23T06:08:24.422Z,22.68
2018-04-23T06:10:50.688Z,22.68
2018-04-23T06:13:16.967Z,22.64
2018-04-23T06:15:43.326Z,22.60
2018-04-23T06:18:09.574Z,22.57
2018-04-23T06:20:36.022Z,22.55
2018-04-23T06:23:02.239Z,22.54
2018-04-23T06:25:28.529Z,22.54
2018-04-23T06:27:54.794Z,22.54
2018-04-23T06:30:20.998Z,22.55
2018-04-23T06:32:47.334Z,22.54
2018-04-23T06:35:13.618Z,22.52
2018-04-23T06:37:39.938Z,22.52
2018-04-23T06:40:06.174Z,22.52
2018-04-23T06:42:32.472Z,22.55
2018-04-23T06:44:58.647Z,22.56
2018-04-23T06:47:24.857Z,22.55
2018-04-23T06:49:51.093Z,22.55
2018-04-23T06:52:17.285Z,22.56
2018-04-23T06:54:43.507Z,22.55
2018-04-23T06:57:10.132Z,22.51
2018-04-23T06:59:36.495Z,22.49
2018-04-23T07:02:02.742Z,22.52
2018-04-23T07:04:29.255Z,22.53
2018-04-23T07:06:55.452Z,22.53
2018-04-23T07:09:21.710Z,22.51
2018-04-23T07:11:48.202Z,22.46
2018-04-23T07:14:14.376Z,22.43
2018-04-23T07:16:40.664Z,22.41
2018-04-23T07:19:06.852Z,22.42
2018-04-23T07:21:33.078Z,22.46
2018-04-23T07:23:59.322Z,22.44
2018-04-23T07:26:25.824Z,22.40
2018-04-23T07:28:52.084Z,22.35
2018-04-23T07:31:18.567Z,22.30
2018-04-23T07:33:44.908Z,22.32
2018-04-23T07:36:11.356Z,22.32
2018-04-23T07:38:37.598Z,22.30
2018-04-23T07:41:03.806Z,22.30
2018-04-23T07:43:30.154Z,22.30
2018-04-23T07:45:56.347Z,22.29
2018-04-23T07:48:22.528Z,22.30
2018-04-23T07:50:48.750Z,22.29
2018-04-23T07:53:15.254Z,22.28
2018-04-23T07:55:41.428Z,22.26
2018-04-23T07:58:07.746Z,22.26
2018-04-23T08:00:33.972Z,22.28
2018-04-23T08:03:00.259Z,22.27
2018-04-23T08:05:26.961Z,22.24
2018-04-23T08:07:53.567Z,22.23
2018-04-23T08:10:19.771Z,22.21
2018-04-23T08:12:46.226Z,22.19
2018-04-23T08:15:12.465Z,22.15
2018-04-23T08:17:38.727Z,22.14
2018-04-23T08:20:05.026Z,22.14
2018-04-23T08:22:31.303Z,22.15
2018-04-23T08:24:57.489Z,22.13
2018-04-23T08:27:23.717Z,22.08
2018-04-23T08:29:50.069Z,22.02
2018-04-23T08:32:16.318Z,21.97
2018-04-23T08:34:42.579Z,21.94
2018-04-23T08:37:08.923Z,21.92
2018-04-23T08:39:35.270Z,21.90
2018-04-23T08:42:01.485Z,21.89
2018-04-23T08:44:27.719Z,21.89
2018-04-23T08:46:53.892Z,21.89
2018-04-23T08:49:20.330Z,21.90
2018-04-23T08:51:46.590Z,21.91
2018-04-23T08:54:13.227Z,21.91
2018-04-23T08:56:39.486Z,21.93
2018-04-23T08:59:05.771Z,21.96
2018-04-23T09:01:32.092Z,22.01
2018-04-23T09:03:58.326Z,22.04
2018-04-23T09:06:24.642Z,22.06
2018-04-23T09:08:50.848Z,22.10
2018-04-23T09:11:17.434Z,22.17
2018-04-23T09:13:44.630Z,22.17
2018-04-23T09:16:10.820Z,22.15
2018-04-23T09:18:37.086Z,22.20
2018-04-23T09:21:03.595Z,22.28
2018-04-23T09:23:29.925Z,22.30
2018-04-23T09:25:56.132Z,22.30
2018-04-23T09:28:22.386Z,22.28
2018-04-23T09:30:48.639Z,22.24
2018-04-23T09:33:15.050Z,22.26
2018-04-23T09:35:41.388Z,22.30
2018-04-23T09:38:07.996Z,22.32
2018-04-23T09:40:34.288Z,22.30
2018-04-23T09:43:00.852Z,22.26
2018-04-23T09:45:27.097Z,22.28
2018-04-23T09:47:53.526Z,22.31
2018-04-23T09:50:19.745Z,22.40
2018-04-23T09:52:45.954Z,22.47
2018-04-23T09:55:12.250Z,22.51
2018-04-23T09:57:38.542Z,22.47
2018-04-23T10:00:04.722Z,22.45
2018-04-23T10:02:31.351Z,22.45
2018-04-23T10:04:57.515Z,22.44
2018-04-23T10:07:23.883Z,22.45
2018-04-23T10:09:50.162Z,22.52
2018-04-23T10:12:16.334Z,22.59
2018-04-23T10:14:42.720Z,22.63
2018-04-23T10:17:08.947Z,22.65
2018-04-23T10:19:35.992Z,22.64
2018-04-23T10:22:08.923Z,22.60
2018-04-23T10:24:36.358Z,22.68
2018-04-23T10:27:02.615Z,22.79
2018-04-23T10:29:29.084Z,22.86
2018-04-23T10:31:55.287Z,22.89
2018-04-23T10:34:21.597Z,22.90
2018-04-23T10:36:49.009Z,22.91
2018-04-23T10:39:15.387Z,22.95
2018-04-23T10:41:41.994Z,22.91
2018-04-23T10:44:08.317Z,22.88
2018-04-23T10:46:34.632Z,22.84
2018-04-23T10:49:01.168Z,22.79
2018-04-23T10:51:27.886Z,22.73
2018-04-23T10:53:54.426Z,22.67
2018-04-23T10:56:20.726Z,22.70
2018-04-23T10:58:47.348Z,22.73
2018-04-23T11:01:13.644Z,22.76
2018-04-23T11:03:39.820Z,22.77
2018-04-23T11:06:06.036Z,22.75
2018-04-23T11:08:32.294Z,22.74
2018-04-23T11:10:58.668Z,22.74
2018-04-23T11:13:24.873Z,22.73
2018-04-23T11:15:51.190Z,22.77
2018-04-23T11:18:17.395Z,22.83
2018-04-23T11:20:43.606Z,22.93
2018-04-23T11:23:09.848Z,23.00
2018-04-23T11:25:36.023Z,23.04
2018-04-23T11:28:02.204Z,23.07
2018-04-23T11:30:28.403Z,23.05
2018-04-23T11:32:54.933Z,22.78
2018-04-23T11:35:21.196Z,22.95
2018-04-23T11:37:47.726Z,22.95
2018-04-23T11:40:14.129Z,22.96
2018-04-23T11:42:40.490Z,22.97
2018-04-23T11:45:06.696Z,22.97
2018-04-23T11:47:32.880Z,22.95
2018-04-23T11:49:59.516Z,22.90
2018-04-23T11:52:25.677Z,22.98
2018-04-23T11:54:51.903Z,23.06
2018-04-23T11:57:18.230Z,23.17
2018-04-23T11:59:44.421Z,23.19
2018-04-23T12:02:10.660Z,23.16
2018-04-23T12:04:37.009Z,23.10
2018-04-23T12:07:03.248Z,23.13
2018-04-23T12:09:29.431Z,23.15
2018-04-23T12:11:55.618Z,23.20
2018-04-23T12:14:21.822Z,23.22
2018-04-23T12:16:48.027Z,23.24
2018-04-23T12:19:14.205Z,23.20
2018-04-23T12:21:40.429Z,23.24
2018-04-23T12:24:07.058Z,23.30
2018-04-23T12:26:33.260Z,23.34
2018-04-23T12:28:59.501Z,23.37
2018-04-23T12:31:25.792Z,23.39
2018-04-23T12:33:52.278Z,23.38
2018-04-23T12:36:18.494Z,23.45
2018-04-23T12:38:44.738Z,23.54
2018-04-23T12:41:10.977Z,23.50
2018-04-23T12:43:37.292Z,23.41
2018-04-23T12:46:03.977Z,23.43
2018-04-23T12:48:30.211Z,23.54
2018-04-23T12:50:56.545Z,23.55
2018-04-23T12:53:22.713Z,23.48
2018-04-23T12:55:48.963Z,23.51
2018-04-23T12:58:15.633Z,23.53
2018-04-23T13:00:41.868Z,23.47
2018-04-23T13:03:08.047Z,23.51
2018-04-23T13:05:34.351Z,23.58
2018-04-23T13:08:00.590Z,23.50
2018-04-23T13:10:27.266Z,23.56
2018-04-23T13:12:53.525Z,23.66
2018-04-23T13:15:19.807Z,23.66
2018-04-23T13:17:47.014Z,23.60
2018-04-23T13:20:13.234Z,23.63
2018-04-23T13:22:39.560Z,23.66
2018-04-23T13:25:05.748Z,23.66
2018-04-23T13:27:31.933Z,23.69
2018-04-23T13:29:58.150Z,23.72
2018-04-23T13:32:24.540Z,23.72
2018-04-23T13:34:51.126Z,23.70
2018-04-23T13:37:17.315Z,23.67
2018-04-23T13:39:43.590Z,23.69
2018-04-23T13:42:09.862Z,23.73
2018-04-23T13:44:36.371Z,23.76
2018-04-23T13:47:02.607Z,23.80
2018-04-23T13:49:29.235Z,23.79
2018-04-23T13:51:55.465Z,23.83
2018-04-23T13:54:21.693Z,23.91
2018-04-23T13:56:48.330Z,24.00
2018-04-23T13:59:14.523Z,23.92
2018-04-23T14:01:40.820Z,23.93
2018-04-23T14:04:07.074Z,23.98
2018-04-23T14:06:33.494Z,23.89
2018-04-23T14:08:59.695Z,23.92
2018-04-23T14:11:27.229Z,24.00
2018-04-23T14:13:53.476Z,24.03
2018-04-23T14:16:19.798Z,24.06
2018-04-23T14:18:45.966Z,24.18
2018-04-23T14:21:12.135Z,24.35
2018-04-23T14:23:38.805Z,24.42
2018-04-23T14:26:05.047Z,24.64
2018-04-23T14:28:31.214Z,25.23
2018-04-23T14:30:57.441Z,26.68
2018-04-23T14:33:23.664Z,27.77
2018-04-23T14:35:50.055Z,27.36
2018-04-23T14:38:16.235Z,26.91
2018-04-23T14:40:42.384Z,25.88
2018-04-23T14:43:09.224Z,24.93
2018-04-23T14:45:35.405Z,24.39
2018-04-23T14:48:01.654Z,24.11
2018-04-23T14:50:27.858Z,25.53
2018-04-23T14:52:54.138Z,27.68
2018-04-23T14:55:20.391Z,28.83
2018-04-23T14:57:46.583Z,27.69
2018-04-23T15:00:12.781Z,27.72
2018-04-23T15:02:39.349Z,28.08
2018-04-23T15:05:05.618Z,28.73
2018-04-23T15:07:31.792Z,29.42
2018-04-23T15:09:58.013Z,30.00
2018-04-23T15:12:24.505Z,30.24
2018-04-23T15:14:50.703Z,30.40
2018-04-23T15:17:16.870Z,30.36
2018-04-23T15:19:43.483Z,30.48
2018-04-23T15:22:09.758Z,30.51
2018-04-23T15:24:35.951Z,30.62
2018-04-23T15:27:02.623Z,30.47
2018-04-23T15:29:28.785Z,30.35
2018-04-23T15:31:54.983Z,30.07
2018-04-23T15:34:21.656Z,29.65
2018-04-23T15:36:48.201Z,29.18
2018-04-23T15:39:14.361Z,28.37
2018-04-23T15:41:40.637Z,27.67
2018-04-23T15:44:06.895Z,27.20
2018-04-23T15:46:33.411Z,26.90
2018-04-23T15:48:59.631Z,26.96
2018-04-23T15:51:25.846Z,26.49
2018-04-23T15:53:52.014Z,25.91
2018-04-23T15:56:18.215Z,25.23
2018-04-23T15:58:44.526Z,24.89
2018-04-23T16:01:10.731Z,25.05
2018-04-23T16:03:44.022Z,25.31
2018-04-23T16:06:10.195Z,25.48
2018-04-23T16:08:36.393Z,25.53
2018-04-23T16:11:02.581Z,25.49
2018-04-23T16:13:29.201Z,25.70
2018-04-23T16:15:55.414Z,25.81
2018-04-23T16:18:21.591Z,25.59
2018-04-23T16:20:47.810Z,25.02
2018-04-23T16:23:13.979Z,24.73
2018-04-23T16:25:40.187Z,24.68
2018-04-23T16:28:06.426Z,24.63
2018-04-23T16:30:32.667Z,24.53
2018-04-23T16:32:58.866Z,24.56
2018-04-23T16:35:25.174Z,24.90
2018-04-23T16:37:51.838Z,25.15
2018-04-23T16:40:18.027Z,24.79
2018-04-23T16:42:44.280Z,24.61
2018-04-23T16:45:10.700Z,24.55
2018-04-23T16:47:36.994Z,24.43
2018-04-23T16:50:03.256Z,24.33
2018-04-23T16:52:29.439Z,24.21
2018-04-23T16:54:55.658Z,24.03
2018-04-23T16:57:21.917Z,23.97
2018-04-23T16:59:48.221Z,24.14
2018-04-23T17:02:14.530Z,24.31
2018-04-23T17:04:40.780Z,24.25
2018-04-23T17:07:06.986Z,24.14
2018-04-23T17:09:33.209Z,23.94
2018-04-23T17:11:59.405Z,23.79
2018-04-23T17:14:25.632Z,23.75
2018-04-23T17:16:51.893Z,24.01
2018-04-23T17:19:18.076Z,24.29
2018-04-23T17:21:44.253Z,24.31
2018-04-23T17:24:10.825Z,24.08
2018-04-23T17:26:37.011Z,23.85
2018-04-23T17:29:03.174Z,23.69
2018-04-23T17:31:29.462Z,23.61
2018-04-23T17:33:55.786Z,23.69
2018-04-23T17:36:22.035Z,23.88
2018-04-23T17:38:48.570Z,23.91
2018-04-23T17:41:15.315Z,23.96
2018-04-23T17:43:43.879Z,24.01
2018-04-23T17:46:10.121Z,23.94
2018-04-23T17:48:36.699Z,23.81
2018-04-23T17:51:02.893Z,23.70
2018-04-23T17:53:29.080Z,23.60
2018-04-23T17:55:55.688Z,23.53
2018-04-23T17:58:21.894Z,23.52
2018-04-23T18:00:48.084Z,23.47
2018-04-23T18:03:14.293Z,23.43
2018-04-23T18:05:40.634Z,23.36
2018-04-23T18:08:07.238Z,23.29
2018-04-23T18:10:33.413Z,23.24
2018-04-23T18:12:59.642Z,23.20
2018-04-23T18:15:25.960Z,23.13
2018-04-23T18:17:52.170Z,23.07
2018-04-23T18:20:18.333Z,23.01
2018-04-23T18:22:44.517Z,22.98
2018-04-23T18:25:10.732Z,22.95
2018-04-23T18:27:37.038Z,22.92
2018-04-23T18:30:03.616Z,22.89
2018-04-23T18:32:29.808Z,22.83
2018-04-23T18:34:56.502Z,22.79
2018-04-23T18:37:22.696Z,22.74
2018-04-23T18:39:49.876Z,22.71
2018-04-23T18:42:16.210Z,22.67
2018-04-23T18:44:42.532Z,22.64
2018-04-23T18:47:08.716Z,22.62
2018-04-23T18:49:35.272Z,22.59
2018-04-23T18:52:01.499Z,22.55
2018-04-23T18:54:27.750Z,22.54
2018-04-23T18:56:53.967Z,22.51
2018-04-23T18:59:20.307Z,22.48
2018-04-23T19:01:46.584Z,22.43
2018-04-23T19:04:12.790Z,22.44
2018-04-23T19:06:38.964Z,22.43
2018-04-23T19:09:05.310Z,22.42
2018-04-23T19:11:31.496Z,22.41
2018-04-23T19:13:57.738Z,22.38
2018-04-23T19:16:24.146Z,22.37
2018-04-23T19:18:50.366Z,22.34
2018-04-23T19:21:16.563Z,22.33
2018-04-23T19:23:42.754Z,22.33
2018-04-23T19:26:09.097Z,22.32
2018-04-23T19:28:35.276Z,22.32
2018-04-23T19:31:01.757Z,22.31
2018-04-23T19:33:27.990Z,22.29
2018-04-23T19:35:55.871Z,22.27
2018-04-23T19:38:22.154Z,22.26
2018-04-23T19:40:48.363Z,22.24
2018-04-23T19:43:14.628Z,22.23
2018-04-23T19:45:41.012Z,22.21
2018-04-23T19:48:07.216Z,22.21
2018-04-23T19:50:33.433Z,22.21
2018-04-23T19:52:59.650Z,22.21
2018-04-23T19:55:25.882Z,22.22
2018-04-23T19:57:52.167Z,22.21
2018-04-23T20:00:18.441Z,22.20
2018-04-23T20:02:44.976Z,22.20
2018-04-23T20:05:11.186Z,22.17
2018-04-23T20:07:37.659Z,22.16
2018-04-23T20:10:04.583Z,22.15
2018-04-23T20:12:30.863Z,22.10
2018-04-23T20:14:57.177Z,22.11
2018-04-23T20:17:23.368Z,22.11
2018-04-23T20:19:49.647Z,22.09
2018-04-23T20:22:15.848Z,22.06
2018-04-23T20:24:42.091Z,22.04
2018-04-23T20:27:08.645Z,22.03
2018-04-23T20:29:35.124Z,22.03
2018-04-23T20:32:01.389Z,22.03
2018-04-23T20:34:27.941Z,22.00
2018-04-23T20:36:54.187Z,22.01
2018-04-23T20:39:20.373Z,22.03
2018-04-23T20:41:46.575Z,22.04
2018-04-23T20:44:12.770Z,22.05
2018-04-23T20:46:39.502Z,22.04
2018-04-23T20:49:05.681Z,22.08
2018-04-23T20:51:31.860Z,22.08
2018-04-23T20:53:58.139Z,22.07
2018-04-23T20:56:24.365Z,22.05
2018-04-23T20:58:50.748Z,22.05
2018-04-23T21:01:17.114Z,22.04
2018-04-23T21:03:43.322Z,22.04
2018-04-23T21:06:09.569Z,22.02
2018-04-23T21:08:35.788Z,22.02
2018-04-23T21:11:02.063Z,22.04
2018-04-23T21:13:28.244Z,22.07
2018-04-23T21:15:54.442Z,22.07
2018-04-23T21:18:21.016Z,22.06
2018-04-23T21:20:47.330Z,22.06
2018-04-23T21:23:13.626Z,22.07
2018-04-23T21:25:39.849Z,22.07
2018-04-23T21:28:06.492Z,22.06
2018-04-23T21:30:32.682Z,22.06
2018-04-23T21:32:58.946Z,22.05
2018-04-23T21:35:25.622Z,22.03
2018-04-23T21:37:51.872Z,22.01
2018-04-23T21:40:18.182Z,22.01
2018-04-23T21:42:44.419Z,22.00
2018-04-23T21:45:10.927Z,21.99
2018-04-23T21:47:37.550Z,21.99
2018-04-23T21:50:03.741Z,21.97
2018-04-23T21:52:30.330Z,21.97
2018-04-23T21:54:56.795Z,21.96
2018-04-23T21:57:23.045Z,21.98
2018-04-23T21:59:49.686Z,21.99
2018-04-23T22:02:16.054Z,21.97
2018-04-23T22:04:42.220Z,21.97
2018-04-23T22:07:08.853Z,21.98
2018-04-23T22:09:35.028Z,22.00
2018-04-23T22:12:01.547Z,21.98
2018-04-23T22:14:27.723Z,21.97
2018-04-23T22:16:54.091Z,21.94
2018-04-23T22:19:20.360Z,21.91
2018-04-23T22:21:46.547Z,21.90
2018-04-23T22:24:12.837Z,21.91
2018-04-23T22:26:39.028Z,21.92
2018-04-23T22:29:05.233Z,21.89
2018-04-23T22:31:31.510Z,21.88
2018-04-23T22:33:58.083Z,21.89
2018-04-23T22:36:24.352Z,21.87
2018-04-23T22:38:50.705Z,21.85
2018-04-23T22:41:17.235Z,21.83
2018-04-23T22:43:43.538Z,21.82
2018-04-23T22:46:09.768Z,21.78
2018-04-23T22:48:36.173Z,21.80
2018-04-23T22:51:02.527Z,21.84
2018-04-23T22:53:28.962Z,21.84
2018-04-23T22:55:55.286Z,21.79
2018-04-23T22:58:21.531Z,21.74
2018-04-23T23:00:47.908Z,21.70
2018-04-23T23:03:14.459Z,21.68
2018-04-23T23:05:40.994Z,21.67
2018-04-23T23:08:07.520Z,21.66
2018-04-23T23:10:33.760Z,21.65
2018-04-23T23:13:00.292Z,21.63
2018-04-23T23:15:26.558Z,21.60
2018-04-23T23:17:53.057Z,21.60
2018-04-23T23:20:19.522Z,21.60
2018-04-23T23:22:46.069Z,21.58
2018-04-23T23:25:12.319Z,21.57
2018-04-23T23:27:38.791Z,21.57
2018-04-23T23:30:05.126Z,21.54
2018-04-23T23:32:31.302Z,21.53
2018-04-23T23:34:57.539Z,21.52
2018-04-23T23:37:23.836Z,21.50
2018-04-23T23:39:50.086Z,21.47
2018-04-23T23:42:16.367Z,21.47
2018-04-23T23:44:42.558Z,21.46
2018-04-23T23:47:08.827Z,21.46
2018-04-23T23:49:35.150Z,21.45
2018-04-23T23:52:01.429Z,21.44
2018-04-23T23:54:27.720Z,21.43
2018-04-23T23:56:53.982Z,21.41
2018-04-23T23:59:20.266Z,21.39
